Time;durP1;ratioP1;P1;durP2;ratioP2;P2;SDS_P1;SDS_P2;PMS_P1;PMS_P2;Temp;Humidity;BMP_temperature;BMP_pressure;BME280_temperature;BME280_humidity;BME280_pressure;Samples;Min_cycle;Max_cycle;Signal;HPM_P1;HPM_P2
2022/08/26 00:00:45;;;;;;;6.53;5.73;;;;;;;22.53;100.00;101429.84;5043510;28;20817;-72
2022/08/26 00:03:12;;;;;;;6.10;5.60;;;;;;;22.22;100.00;101434.31;5044814;28;20557;-72
2022/08/26 00:05:38;;;;;;;6.23;5.50;;;;;;;22.17;100.00;101441.59;5038869;28;20434;-72
2022/08/26 00:08:04;;;;;;;6.33;5.20;;;;;;;22.18;100.00;101444.09;5037023;28;20983;-72
2022/08/26 00:10:30;;;;;;;7.43;4.90;;;;;;;22.25;100.00;101447.44;5038412;28;20464;-72
2022/08/26 00:12:56;;;;;;;6.00;5.40;;;;;;;21.89;100.00;101364.34;5039964;28;20884;-72
2022/08/26 00:15:22;;;;;;;9.33;6.00;;;;;;;22.65;100.00;101467.09;5039149;28;20615;-72
2022/08/26 00:17:49;;;;;;;11.10;6.50;;;;;;;22.68;100.00;101470.13;5039869;28;20266;-72
2022/08/26 00:20:16;;;;;;;7.97;5.77;;;;;;;22.64;100.00;101479.13;5039933;28;20484;-71
2022/08/26 00:22:42;;;;;;;7.93;6.20;;;;;;;22.17;100.00;101455.25;5038901;28;20442;-72
2022/08/26 00:25:08;;;;;;;7.90;5.37;;;;;;;22.39;100.00;101446.97;5038034;28;20437;-72
2022/08/26 00:27:34;;;;;;;7.90;5.80;;;;;;;22.58;100.00;101461.03;5041866;28;20191;-72
2022/08/26 00:30:01;;;;;;;6.53;5.83;;;;;;;22.60;100.00;101458.88;5039614;28;20426;-71
2022/08/26 00:32:27;;;;;;;6.70;5.77;;;;;;;22.31;100.00;101426.44;5041335;28;20194;-71
2022/08/26 00:34:52;;;;;;;7.60;5.87;;;;;;;22.12;100.00;101412.31;5040239;28;20458;-72
2022/08/26 00:37:18;;;;;;;9.90;5.70;;;;;;;22.79;100.00;101476.47;5037020;28;20462;-72
2022/08/26 00:39:44;;;;;;;5.80;5.20;;;;;;;22.02;100.00;101384.94;5041085;28;20302;-71
2022/08/26 00:42:09;;;;;;;6.03;5.40;;;;;;;22.13;100.00;101383.94;5036065;28;20258;-71
2022/08/26 00:44:35;;;;;;;7.43;5.37;;;;;;;22.19;100.00;101412.97;5042996;28;20552;-72
2022/08/26 00:47:04;;;;;;;7.07;5.90;;;;;;;22.33;100.00;101466.09;5041757;28;20242;-71
2022/08/26 00:49:40;;;;;;;6.70;5.50;;;;;;;22.43;100.00;101465.31;5038889;28;20183;-71
2022/08/26 00:52:09;;;;;;;5.63;5.03;;;;;;;22.11;100.00;101462.59;5037518;28;21226;-72
2022/08/26 00:54:39;;;;;;;7.57;5.77;;;;;;;21.87;100.00;101443.81;5040587;28;21008;-72
2022/08/26 00:57:10;;;;;;;5.93;5.33;;;;;;;21.91;100.00;101454.22;5036725;28;20443;-72
2022/08/26 00:59:36;;;;;;;8.20;6.23;;;;;;;21.96;100.00;101454.25;5037438;28;20458;-72
2022/08/26 01:02:02;;;;;;;6.93;5.60;;;;;;;21.59;100.00;101379.41;5037985;28;20997;-71
2022/08/26 01:04:30;;;;;;;9.73;6.10;;;;;;;22.39;100.00;101463.38;5039827;28;20208;-72
2022/08/26 01:06:56;;;;;;;9.70;5.97;;;;;;;22.03;100.00;101452.16;5037673;28;20442;-74
2022/08/26 01:09:22;;;;;;;6.97;6.00;;;;;;;21.25;100.00;101356.13;5041073;28;20446;-72
2022/08/26 01:11:52;;;;;;;5.70;5.20;;;;;;;21.88;100.00;101458.31;5036888;28;20444;-72
2022/08/26 01:14:19;;;;;;;6.57;5.90;;;;;;;21.79;100.00;101457.94;5033680;28;20522;-72
2022/08/26 01:16:46;;;;;;;5.70;5.20;;;;;;;21.09;100.00;101372.34;5038684;28;20443;-72
2022/08/26 01:19:39;;;;;;;8.63;6.43;;;;;;;21.73;100.00;101463.63;5042131;28;20501;-72
2022/08/26 01:22:09;;;;;;;7.07;6.37;;;;;;;21.74;100.00;101466.09;5034350;28;20477;-72
2022/08/26 01:24:36;;;;;;;6.77;6.07;;;;;;;21.61;100.00;101464.59;5039500;28;20459;-72
2022/08/26 01:27:05;;;;;;;5.90;5.30;;;;;;;21.56;100.00;101474.66;5038285;28;20475;-72
2022/08/26 01:29:33;;;;;;;6.80;5.40;;;;;;;21.53;100.00;101467.78;5036445;28;20427;-72
2022/08/26 01:31:59;;;;;;;6.97;6.27;;;;;;;21.35;100.00;101459.91;5037416;28;20458;-72
2022/08/26 01:34:33;;;;;;;6.90;6.30;;;;;;;21.45;100.00;101462.78;5038888;28;20816;-72
2022/08/26 01:37:11;;;;;;;6.80;6.13;;;;;;;21.26;100.00;101447.78;5037483;28;20274;-72
2022/08/26 01:39:36;;;;;;;6.20;5.60;;;;;;;21.37;100.00;101460.50;5038167;28;20484;-72
2022/08/26 01:42:04;;;;;;;10.20;6.57;;;;;;;21.34;100.00;101456.34;5035352;28;21120;-72
2022/08/26 01:44:41;;;;;;;8.70;7.17;;;;;;;20.82;100.00;101376.91;5038699;28;20261;-72
2022/08/26 01:47:08;;;;;;;7.73;6.93;;;;;;;21.30;100.00;101452.50;5037271;28;20438;-72
2022/08/26 01:49:35;;;;;;;9.20;6.60;;;;;;;21.34;100.00;101464.53;5042437;28;20435;-72
2022/08/26 01:52:02;;;;;;;7.97;6.60;;;;;;;21.22;100.00;101469.31;5039421;28;20497;-72
2022/08/26 01:54:28;;;;;;;9.73;6.93;;;;;;;20.95;100.00;101437.34;5039423;28;21030;-72
2022/08/26 01:56:54;;;;;;;9.70;7.17;;;;;;;20.63;100.00;101362.78;5040627;28;20449;-72
2022/08/26 01:59:20;;;;;;;9.47;8.50;;;;;;;21.14;100.00;101459.66;5037129;28;20203;-72
2022/08/26 02:01:47;;;;;;;8.20;7.30;;;;;;;20.57;100.00;101380.97;5038820;28;20448;-72
2022/08/26 02:04:13;;;;;;;8.90;7.97;;;;;;;21.12;100.00;101472.75;5036254;28;20466;-72
2022/08/26 02:06:38;;;;;;;12.13;7.80;;;;;;;20.94;100.00;101467.59;5036958;28;20934;-72
2022/08/26 02:09:05;;;;;;;10.37;7.83;;;;;;;20.97;100.00;101489.75;5038077;28;20699;-72
2022/08/26 02:11:32;;;;;;;8.20;7.40;;;;;;;21.48;100.00;101478.66;5038895;28;20698;-72
2022/08/26 02:14:02;;;;;;;7.80;7.00;;;;;;;21.69;100.00;101471.50;5040736;28;20494;-72
2022/08/26 02:16:32;;;;;;;7.90;7.10;;;;;;;20.88;100.00;101373.16;5036932;28;20962;-72
2022/08/26 02:18:59;;;;;;;9.77;7.80;;;;;;;21.69;100.00;101473.41;5040474;28;20985;-71
2022/08/26 02:21:24;;;;;;;11.20;8.10;;;;;;;21.12;100.00;101426.38;5031695;28;20906;-72
2022/08/26 02:23:51;;;;;;;10.97;8.30;;;;;;;21.65;100.00;101467.63;5036536;28;20460;-72
2022/08/26 02:26:20;;;;;;;10.20;7.90;;;;;;;21.74;100.00;101482.47;5035681;28;20186;-72
2022/08/26 02:28:52;;;;;;;10.87;9.17;;;;;;;21.88;100.00;101480.97;5038284;28;20438;-72
2022/08/26 02:31:18;;;;;;;12.20;9.60;;;;;;;21.23;100.00;101380.91;5039141;28;20495;-72
2022/08/26 02:33:44;;;;;;;10.23;8.80;;;;;;;21.75;100.00;101484.09;5037451;28;20453;-72
2022/08/26 02:36:10;;;;;;;11.80;10.53;;;;;;;21.94;100.00;101489.22;5036192;28;20188;-72
2022/08/26 02:38:36;;;;;;;11.63;9.87;;;;;;;21.82;100.00;101483.91;5039569;28;20477;-71
2022/08/26 02:41:02;;;;;;;12.60;11.30;;;;;;;21.87;100.00;101489.41;5037785;28;20806;-72
2022/08/26 02:43:27;;;;;;;15.37;10.63;;;;;;;21.66;100.00;101478.28;5037072;28;20212;-72
2022/08/26 02:45:53;;;;;;;15.70;11.67;;;;;;;21.80;100.00;101480.59;5038735;28;20949;-72
2022/08/26 02:48:20;;;;;;;16.40;12.40;;;;;;;21.74;100.00;101485.19;5035630;28;20184;-71
2022/08/26 02:50:46;;;;;;;15.23;12.03;;;;;;;21.79;100.00;101501.63;5038572;28;20187;-71
2022/08/26 02:53:12;;;;;;;13.93;11.60;;;;;;;21.54;100.00;101466.69;5039022;28;20458;-71
2022/08/26 02:55:39;;;;;;;18.70;13.63;;;;;;;21.56;100.00;101491.84;5037774;28;20949;-71
2022/08/26 02:58:04;;;;;;;18.30;12.80;;;;;;;21.68;100.00;101505.34;5038105;28;20204;-71
2022/08/26 03:00:31;;;;;;;13.60;12.17;;;;;;;21.73;100.00;101510.88;5038460;28;20459;-71
2022/08/26 03:02:57;;;;;;;16.53;11.53;;;;;;;21.77;100.00;101501.06;5036696;28;20216;-72
2022/08/26 03:05:24;;;;;;;15.80;12.70;;;;;;;20.91;100.00;101376.22;5035649;28;20910;-71
2022/08/26 03:07:50;;;;;;;16.43;13.40;;;;;;;21.56;100.00;101502.75;5038581;28;20442;-72
2022/08/26 03:10:16;;;;;;;15.60;12.97;;;;;;;21.14;100.00;101442.47;5037963;28;20447;-71
2022/08/26 03:12:44;;;;;;;19.17;13.63;;;;;;;21.47;100.00;101471.56;5037563;28;20809;-72
2022/08/26 03:15:11;;;;;;;14.30;12.50;;;;;;;21.72;100.00;101517.38;5040710;28;20909;-72
2022/08/26 03:17:36;;;;;;;16.53;13.20;;;;;;;21.80;100.00;101510.66;5039416;28;20962;-71
2022/08/26 03:20:03;;;;;;;23.03;13.80;;;;;;;21.49;100.00;101472.09;5040688;28;20471;-72
2022/08/26 03:22:29;;;;;;;16.40;14.47;;;;;;;21.48;100.00;101477.81;5038844;28;20223;-72
2022/08/26 03:24:54;;;;;;;19.53;13.67;;;;;;;21.71;100.00;101520.38;5035704;28;20454;-72
2022/08/26 03:27:19;;;;;;;17.63;13.17;;;;;;;21.70;100.00;101513.25;5035163;28;20187;-72
2022/08/26 03:32:29;;;;;;;21.00;14.93;;;;;;;21.61;100.00;101501.97;5038205;28;20279;-72
2022/08/26 03:34:55;;;;;;;14.80;11.97;;;;;;;21.56;100.00;101513.69;5040683;28;20570;-72
2022/08/26 03:37:20;;;;;;;15.20;11.70;;;;;;;21.56;100.00;101519.13;5040071;28;20253;-72
2022/08/26 03:39:46;;;;;;;18.57;13.90;;;;;;;21.57;100.00;101522.69;5042295;28;20211;-72
2022/08/26 03:42:12;;;;;;;16.20;12.83;;;;;;;21.64;100.00;101515.13;5036649;28;20736;-72
2022/08/26 03:44:37;;;;;;;21.33;12.40;;;;;;;21.76;100.00;101524.00;5039273;28;20706;-72
2022/08/26 03:47:02;;;;;;;15.53;11.70;;;;;;;21.71;100.00;101525.84;5041142;28;20184;-72
2022/08/26 03:49:30;;;;;;;15.13;12.07;;;;;;;21.71;100.00;101528.56;5038537;28;21017;-72
2022/08/26 03:51:55;;;;;;;18.50;14.37;;;;;;;21.69;100.00;101523.34;5038016;28;20219;-71
2022/08/26 03:54:21;;;;;;;17.70;13.10;;;;;;;21.55;100.00;101492.09;5040033;28;20540;-72
2022/08/26 03:56:46;;;;;;;18.60;12.97;;;;;;;21.61;100.00;101493.78;5041032;28;20192;-72
2022/08/26 03:59:11;;;;;;;18.27;13.07;;;;;;;21.78;100.00;101534.66;5039354;28;20547;-72
2022/08/26 04:01:37;;;;;;;18.27;13.97;;;;;;;21.79;100.00;101533.59;5039073;28;20196;-71
2022/08/26 04:04:03;;;;;;;19.60;13.40;;;;;;;21.78;100.00;101530.00;5040953;28;20215;-72
2022/08/26 04:06:36;;;;;;;18.60;13.83;;;;;;;21.27;100.00;101463.94;5039738;28;21069;-71
2022/08/26 04:09:12;;;;;;;17.47;13.63;;;;;;;21.37;100.00;101465.97;5039160;28;20172;-72
2022/08/26 04:11:38;;;;;;;21.87;14.50;;;;;;;21.89;100.00;101539.94;5039247;28;20442;-72
2022/08/26 04:14:13;;;;;;;18.73;14.13;;;;;;;21.86;100.00;101539.66;5041321;28;20481;-72
2022/08/26 04:16:40;;;;;;;21.77;15.63;;;;;;;21.09;100.00;101447.88;5039991;28;20435;-72
2022/08/26 04:19:07;;;;;;;19.53;15.50;;;;;;;21.80;100.00;101529.75;5040180;28;20970;-72
2022/08/26 04:21:33;;;;;;;23.10;15.53;;;;;;;21.79;100.00;101547.25;5038695;28;20798;-72
2022/08/26 04:23:58;;;;;;;22.30;15.53;;;;;;;21.74;100.00;101549.91;5038617;28;20887;-72
2022/08/26 04:26:24;;;;;;;20.60;14.87;;;;;;;21.84;100.00;101555.47;5037741;28;20449;-72
2022/08/26 04:28:52;;;;;;;22.00;14.87;;;;;;;21.64;100.00;101515.13;5044365;28;20202;-72
2022/08/26 04:31:18;;;;;;;19.77;13.93;;;;;;;21.87;100.00;101564.00;5038432;28;20562;-71
2022/08/26 04:33:46;;;;;;;26.10;16.37;;;;;;;21.52;100.00;101504.34;5041060;28;20462;-72
2022/08/26 04:36:12;;;;;;;28.13;17.40;;;;;;;21.57;100.00;101525.41;5036485;28;20483;-73
2022/08/26 04:38:37;;;;;;;25.50;16.60;;;;;;;21.47;100.00;101500.75;5038181;28;20953;-72
2022/08/26 04:41:05;;;;;;;26.60;16.43;;;;;;;21.40;100.00;101490.84;5038228;28;20656;-72
2022/08/26 04:43:31;;;;;;;25.00;17.13;;;;;;;21.72;100.00;101539.22;5039002;28;20300;-72
2022/08/26 04:46:01;;;;;;;22.80;16.00;;;;;;;21.50;100.00;101509.25;5041460;28;20838;-72
2022/08/26 04:48:28;;;;;;;17.30;14.97;;;;;;;21.78;100.00;101548.31;5038340;28;20180;-73
2022/08/26 04:50:55;;;;;;;21.23;15.13;;;;;;;21.88;100.00;101560.16;5036987;28;20445;-73
2022/08/26 04:53:21;;;;;;;27.20;18.23;;;;;;;21.78;100.00;101543.66;5040551;28;20967;-73
2022/08/26 04:55:46;;;;;;;20.40;16.67;;;;;;;21.80;100.00;101563.34;5043084;28;20452;-73
2022/08/26 04:58:16;;;;;;;21.20;14.97;;;;;;;21.81;100.00;101565.03;5040858;28;20925;-73
2022/08/26 05:00:47;;;;;;;24.10;16.77;;;;;;;21.89;100.00;101560.97;5039647;28;20195;-73
2022/08/26 05:03:12;;;;;;;26.40;15.73;;;;;;;21.81;100.00;101547.78;5048303;28;20469;-73
2022/08/26 05:05:43;;;;;;;24.37;17.20;;;;;;;21.83;100.00;101560.09;5041837;28;20453;-73
2022/08/26 05:08:10;;;;;;;27.37;17.90;;;;;;;21.26;100.00;101464.97;5037225;28;20604;-73
2022/08/26 05:10:40;;;;;;;27.03;17.63;;;;;;;21.88;100.00;101556.63;5036920;28;20564;-73
2022/08/26 05:13:06;;;;;;;22.60;16.30;;;;;;;21.58;100.00;101511.53;5036408;28;20494;-73
2022/08/26 05:15:33;;;;;;;25.93;17.00;;;;;;;21.86;100.00;101566.97;5038291;28;20449;-73
2022/08/26 05:17:59;;;;;;;23.60;16.07;;;;;;;21.39;100.00;101475.53;5038907;28;20207;-73
2022/08/26 05:20:24;;;;;;;22.43;15.07;;;;;;;21.82;100.00;101528.44;5035855;28;20573;-73
2022/08/26 05:22:50;;;;;;;23.37;16.30;;;;;;;21.54;100.00;101485.81;5039078;28;20584;-73
2022/08/26 05:25:16;;;;;;;21.97;16.27;;;;;;;21.26;100.00;101454.06;5041558;28;20628;-73
2022/08/26 05:27:41;;;;;;;19.60;16.30;;;;;;;21.90;100.00;101565.38;5043048;28;20654;-73
2022/08/26 05:30:08;;;;;;;21.27;17.23;;;;;;;21.35;100.00;101465.34;5042737;28;20487;-73
2022/08/26 05:32:33;;;;;;;27.43;19.20;;;;;;;21.82;100.00;101544.00;5037397;28;20184;-73
2022/08/26 05:34:59;;;;;;;19.03;16.80;;;;;;;21.70;100.00;101518.72;5041756;28;20430;-73
2022/08/26 05:37:24;;;;;;;23.17;17.93;;;;;;;21.90;100.00;101529.88;5043294;28;20188;-73
2022/08/26 05:39:50;;;;;;;23.93;17.77;;;;;;;21.60;100.00;101482.03;5039521;28;20204;-73
2022/08/26 05:42:15;;;;;;;23.53;20.10;;;;;;;21.81;100.00;101525.94;5043432;28;20626;-73
2022/08/26 05:44:40;;;;;;;21.90;16.63;;;;;;;21.78;100.00;101543.66;5040498;28;21181;-72
2022/08/26 05:47:06;;;;;;;27.50;18.33;;;;;;;21.49;100.00;101502.13;5041997;28;20310;-72
2022/08/26 05:49:32;;;;;;;21.87;16.60;;;;;;;21.97;100.00;101568.72;5041005;28;20188;-73
2022/08/26 05:51:57;;;;;;;17.10;14.37;;;;;;;21.85;100.00;101559.88;5041561;28;20192;-73
2022/08/26 05:54:23;;;;;;;17.27;14.00;;;;;;;21.88;100.00;101573.81;5039422;28;20231;-73
2022/08/26 05:56:50;;;;;;;17.10;14.60;;;;;;;21.67;100.00;101539.19;5041839;28;20298;-73
2022/08/26 05:59:15;;;;;;;24.83;15.37;;;;;;;21.72;100.00;101544.69;5041687;28;20203;-72
2022/08/26 06:01:41;;;;;;;18.30;13.63;;;;;;;21.96;100.00;101578.00;5043268;28;20425;-73
2022/08/26 06:04:07;;;;;;;19.27;14.60;;;;;;;21.49;100.00;101513.03;5039516;28;20223;-74
2022/08/26 06:06:35;;;;;;;19.77;15.10;;;;;;;21.72;100.00;101555.59;5040421;28;20450;-72
2022/08/26 06:09:05;;;;;;;23.63;16.20;;;;;;;21.89;100.00;101580.91;5031516;28;20176;-72
2022/08/26 06:11:31;;;;;;;19.17;15.10;;;;;;;22.01;100.00;101579.94;5037773;28;20449;-72
2022/08/26 06:14:00;;;;;;;19.97;15.23;;;;;;;21.91;100.00;101564.28;5039871;28;20459;-72
2022/08/26 06:16:26;;;;;;;19.10;14.33;;;;;;;21.53;100.00;101508.72;5034856;28;20446;-72
2022/08/26 06:18:52;;;;;;;21.83;15.20;;;;;;;21.86;100.00;101573.25;5040368;28;20475;-72
2022/08/26 06:21:27;;;;;;;24.40;17.10;;;;;;;21.36;100.00;101503.34;5040296;28;20443;-72
2022/08/26 06:26:42;;;;;;;19.00;13.90;;;;;;;21.77;100.00;101584.88;5039194;28;20461;-72
2022/08/26 06:29:07;;;;;;;21.23;15.43;;;;;;;21.50;100.00;101542.00;5040853;28;20501;-73
2022/08/26 06:31:34;;;;;;;21.00;15.07;;;;;;;21.77;100.00;101584.88;5038735;28;20520;-73
2022/08/26 06:34:00;;;;;;;23.53;16.83;;;;;;;21.79;100.00;101583.56;5029228;28;20282;-71
2022/08/26 06:36:29;;;;;;;22.30;16.07;;;;;;;21.78;100.00;101581.88;5032348;28;20580;-72
2022/08/26 06:38:59;;;;;;;27.00;16.90;;;;;;;21.67;100.00;101559.13;5035722;28;20579;-72
2022/08/26 06:41:25;;;;;;;25.90;16.20;;;;;;;21.20;100.00;101457.81;5033507;28;20449;-73
2022/08/26 06:43:50;;;;;;;25.40;16.97;;;;;;;21.85;100.00;101600.81;5032405;28;20463;-72
2022/08/26 06:46:18;;;;;;;23.83;14.13;;;;;;;21.50;100.00;101566.56;5045296;28;20187;-72
2022/08/26 06:48:44;;;;;;;23.13;15.50;;;;;;;21.80;100.00;101590.66;5029199;28;20183;-73
2022/08/26 06:51:13;;;;;;;20.43;15.00;;;;;;;21.87;100.00;101591.31;5039505;28;21347;-72
2022/08/26 06:53:40;;;;;;;19.13;13.93;;;;;;;21.83;100.00;101586.59;5034827;28;20525;-73
2022/08/26 06:56:09;;;;;;;20.97;13.83;;;;;;;21.09;100.00;101467.81;5035679;28;20953;-73
2022/08/26 06:58:36;;;;;;;21.67;13.60;;;;;;;21.70;100.00;101565.13;5041281;28;20942;-73
2022/08/26 07:01:03;;;;;;;24.73;14.40;;;;;;;21.85;100.00;101585.25;5036289;28;20493;-73
2022/08/26 07:03:28;;;;;;;19.70;14.03;;;;;;;20.82;100.00;101432.25;5038752;28;20505;-73
2022/08/26 07:06:01;;;;;;;26.13;13.50;;;;;;;21.85;100.00;101592.63;5034663;28;20528;-73
2022/08/26 07:08:26;;;;;;;20.97;13.40;;;;;;;21.72;100.00;101555.59;5037962;28;20187;-73
2022/08/26 07:10:52;;;;;;;18.73;12.40;;;;;;;21.77;100.00;101593.91;5039821;28;20437;-74
2022/08/26 07:13:17;;;;;;;20.30;11.67;;;;;;;21.85;100.00;101574.34;5041199;28;20867;-73
2022/08/26 07:15:43;;;;;;;16.33;11.10;;;;;;;21.71;100.00;101553.97;5043079;28;20186;-74
2022/08/26 07:18:08;;;;;;;16.10;11.40;;;;;;;21.52;100.00;101504.34;5037319;28;20357;-73
2022/08/26 07:20:39;;;;;;;13.10;9.23;;;;;;;21.93;100.00;101572.22;5037957;28;20187;-73
2022/08/26 07:23:06;;;;;;;13.93;9.50;;;;;;;22.15;100.00;101591.31;5040512;28;20237;-74
2022/08/26 07:25:32;;;;;;;18.33;10.37;;;;;;;22.08;100.00;101597.78;5040189;28;20467;-75
2022/08/26 07:27:57;;;;;;;17.87;10.57;;;;;;;22.04;100.00;101601.28;5038342;28;20434;-74
2022/08/26 07:30:23;;;;;;;15.13;10.07;;;;;;;21.83;100.00;101595.59;5039114;28;20192;-73
2022/08/26 07:32:49;;;;;;;13.20;9.60;;;;;;;21.92;100.00;101608.81;5037135;28;20192;-73
2022/08/26 07:35:14;;;;;;;13.80;10.00;;;;;;;21.49;100.00;101550.44;5036740;28;20438;-73
2022/08/26 07:37:39;;;;;;;16.90;11.10;;;;;;;21.90;100.00;101625.47;5039133;28;20647;-72
2022/08/26 07:40:06;;;;;;;14.27;10.40;;;;;;;21.83;100.00;101660.31;5042015;28;20624;-72
2022/08/26 07:42:33;;;;;;;23.83;13.97;;;;;;;21.26;100.00;101581.47;5036461;28;20191;-72
2022/08/26 07:44:58;;;;;;;18.50;11.07;;;;;;;21.03;100.00;101539.72;5038340;28;20506;-73
2022/08/26 07:47:24;;;;;;;19.77;10.87;;;;;;;21.94;100.00;101639.44;5037038;28;20450;-73
2022/08/26 07:49:49;;;;;;;18.10;10.67;;;;;;;22.01;100.00;101629.94;5036987;28;20263;-72
2022/08/26 07:52:14;;;;;;;17.03;10.13;;;;;;;21.84;100.00;101627.31;5038628;28;20207;-72
2022/08/26 07:54:40;;;;;;;12.57;8.93;;;;;;;22.11;100.00;101631.97;5043194;28;20208;-72
2022/08/26 07:57:05;;;;;;;15.17;11.07;;;;;;;22.18;100.00;101642.72;5042746;28;20206;-72
2022/08/26 07:59:31;;;;;;;22.80;11.13;;;;;;;21.84;100.00;101602.75;5042122;28;20261;-72
2022/08/26 08:01:58;;;;;;;17.77;11.40;;;;;;;21.87;100.00;101635.00;5042116;28;20183;-71
2022/08/26 08:04:24;;;;;;;17.40;9.63;;;;;;;21.94;100.00;101623.88;5041929;28;20208;-71
2022/08/26 08:06:49;;;;;;;18.63;11.53;;;;;;;21.56;100.00;101583.81;5042772;28;20427;-71
2022/08/26 08:09:15;;;;;;;18.50;10.33;;;;;;;21.76;100.00;101637.84;5041867;28;20644;-71
2022/08/26 08:11:41;;;;;;;17.10;12.00;;;;;;;21.93;100.00;101646.81;5043562;28;20187;-71
2022/08/26 08:14:07;;;;;;;15.60;10.60;;;;;;;21.96;100.00;101645.44;5040274;28;20211;-71
2022/08/26 08:16:33;;;;;;;18.30;11.40;;;;;;;21.77;100.00;101643.03;5041834;28;20183;-71
2022/08/26 08:18:58;;;;;;;19.20;11.57;;;;;;;21.60;100.00;101595.88;5043129;28;20524;-71
2022/08/26 08:21:24;;;;;;;18.20;10.00;;;;;;;21.95;100.00;101652.00;5041899;28;20438;-71
2022/08/26 08:23:55;;;;;;;22.03;10.80;;;;;;;22.07;100.00;101664.47;5041635;28;20212;-71
2022/08/26 08:26:22;;;;;;;24.27;13.70;;;;;;;21.91;100.00;101675.44;5041260;28;20274;-72
2022/08/26 08:28:47;;;;;;;18.33;10.00;;;;;;;21.62;100.00;101635.50;5042917;28;20427;-71
2022/08/26 08:31:40;;;;;;;16.60;10.03;;;;;;;21.94;100.00;101678.50;5041794;28;20867;-71
2022/08/26 08:34:05;;;;;;;19.20;11.67;;;;;;;22.15;100.00;101667.81;5041072;28;20220;-71
2022/08/26 08:36:30;;;;;;;22.30;12.03;;;;;;;22.01;100.00;101656.44;5043030;28;20455;-71
2022/08/26 08:38:56;;;;;;;22.33;12.73;;;;;;;22.15;100.00;101667.81;5040176;28;20218;-72
2022/08/26 08:41:28;;;;;;;26.70;12.57;;;;;;;21.54;100.00;101569.59;5041341;28;20262;-72
2022/08/26 08:43:55;;;;;;;16.90;10.50;;;;;;;21.49;100.00;101592.19;5039908;28;20228;-73
2022/08/26 08:46:21;;;;;;;17.77;10.77;;;;;;;22.06;100.00;101648.31;5041296;28;21008;-71
2022/08/26 08:48:55;;;;;;;19.13;12.00;;;;;;;21.85;100.00;101626.22;5040642;28;20434;-72
2022/08/26 08:52:01;;;;;;;16.47;10.90;;;;;;;22.20;100.00;101663.25;5040879;28;20913;-72
2022/08/26 08:54:27;;;;;;;18.03;10.57;;;;;;;22.12;100.00;101648.09;5038185;28;20463;-72
2022/08/26 08:57:43;;;;;;;19.00;10.30;;;;;;;22.03;100.00;101655.09;5040686;28;20632;-74
2022/08/26 09:00:16;;;;;;;22.00;11.33;;;;;;;21.80;100.00;101633.53;5023669;28;20544;-72
2022/08/26 09:02:50;;;;;;;16.47;10.00;;;;;;;22.06;100.00;101662.78;5040231;28;20441;-72
2022/08/26 09:05:18;;;;;;;16.53;9.07;;;;;;;22.03;100.00;101663.28;5039843;28;20451;-72
2022/08/26 09:07:49;;;;;;;11.53;7.80;;;;;;;22.04;100.00;101662.25;5033562;28;20822;-71
2022/08/26 09:10:35;;;;;;;13.80;7.77;;;;;;;21.74;100.00;101648.19;5037282;28;20435;-71
2022/08/26 09:13:05;;;;;;;17.07;9.53;;;;;;;21.49;100.00;101577.72;5036789;28;20524;-72
2022/08/26 09:15:58;;;;;;;14.97;8.60;;;;;;;22.14;100.00;101666.16;5031101;28;20446;-73
2022/08/26 09:18:29;;;;;;;13.63;8.10;;;;;;;21.87;100.00;101669.66;5032732;28;20478;-73
2022/08/26 09:20:59;;;;;;;17.47;9.63;;;;;;;21.68;100.00;101663.69;5038299;28;20936;-72
2022/08/26 09:23:25;;;;;;;18.37;8.87;;;;;;;21.87;100.00;101677.84;5031012;28;20473;-74
2022/08/26 09:25:53;;;;;;;13.93;9.43;;;;;;;21.84;100.00;101676.47;5028805;22;20503;-69
2022/08/26 09:28:21;;;;;;;16.67;9.10;;;;;;;21.73;100.00;101652.84;5020084;28;20442;-69
2022/08/26 09:31:00;;;;;;;15.07;9.00;;;;;;;21.77;100.00;101683.19;5017749;28;20553;-69
2022/08/26 09:33:31;;;;;;;15.60;8.73;;;;;;;21.71;100.00;101692.41;5018149;28;20939;-69
2022/08/26 09:36:21;;;;;;;17.50;9.40;;;;;;;21.63;100.00;101701.84;5033478;28;20558;-70
2022/08/26 09:38:48;;;;;;;16.77;10.20;;;;;;;21.70;100.00;101686.13;5017189;28;21020;-69
2022/08/26 09:41:32;;;;;;;18.30;10.97;;;;;;;21.37;100.00;101689.72;5016568;28;20499;-69
2022/08/26 09:44:12;;;;;;;16.83;9.40;;;;;;;21.60;100.00;101702.34;5020460;28;20450;-69
2022/08/26 09:46:45;;;;;;;12.93;7.80;;;;;;;21.64;100.00;101700.78;5015334;28;20439;-69
2022/08/26 09:49:31;;;;;;;15.90;7.83;;;;;;;21.89;100.00;101700.25;5017913;28;20431;-68
2022/08/26 09:52:19;;;;;;;12.27;7.03;;;;;;;21.86;100.00;101696.13;5018648;28;20493;-69
2022/08/26 09:55:04;;;;;;;10.60;7.40;;;;;;;21.94;100.00;101704.97;5021396;28;20443;-69
2022/08/26 09:57:35;;;;;;;10.30;6.70;;;;;;;21.81;100.00;101696.09;5022149;28;20443;-68
2022/08/26 10:00:22;;;;;;;16.30;7.20;;;;;;;21.89;100.00;101689.34;5020250;28;20475;-69
2022/08/26 10:02:48;;;;;;;11.63;6.67;;;;;;;21.58;100.00;101634.38;5022228;28;20419;-69
2022/08/26 10:05:18;;;;;;;18.10;8.00;;;;;;;22.10;100.00;101688.53;5020332;28;20555;-69
2022/08/26 10:07:48;;;;;;;13.33;8.80;;;;;;;22.20;100.00;101687.84;5023350;28;20830;-69
2022/08/26 10:10:38;;;;;;;10.57;7.60;;;;;;;22.25;100.00;101678.88;5022110;28;20449;-68
2022/08/26 10:13:27;;;;;;;12.30;6.30;;;;;;;22.53;100.00;101677.78;5021744;28;20437;-69
2022/08/26 10:16:06;;;;;;;13.60;5.70;;;;;;;22.55;100.00;101668.25;5021497;28;20450;-69
2022/08/26 10:18:36;;;;;;;8.10;4.60;;;;;;;22.36;100.00;101666.13;5021964;28;20476;-69
2022/08/26 10:21:17;;;;;;;9.93;4.33;;;;;;;22.50;100.00;101657.25;5019065;28;20435;-68
2022/08/26 10:23:48;;;;;;;8.17;4.57;;;;;;;22.36;100.00;101660.66;5020790;28;20506;-68
2022/08/26 10:26:13;;;;;;;8.30;4.40;;;;;;;22.53;100.00;101664.13;5019147;28;20498;-68
2022/08/26 10:28:53;;;;;;;9.10;4.80;;;;;;;22.49;100.00;101614.63;5020761;28;20438;-69
2022/08/26 10:31:32;;;;;;;8.97;4.00;;;;;;;22.49;100.00;101608.31;5020267;28;20181;-69
2022/08/26 10:33:59;;;;;;;7.17;4.50;;;;;;;22.63;100.00;101656.03;5021068;28;20899;-69
2022/08/26 10:39:37;;;;;;;6.27;3.80;;;;;;;23.20;100.00;101635.41;5020012;28;20899;-69
2022/08/26 10:42:07;;;;;;;9.40;4.60;;;;;;;23.19;100.00;101634.59;5019074;28;20443;-69
2022/08/26 10:44:37;;;;;;;8.00;4.07;;;;;;;22.96;100.00;101621.31;5023023;28;21016;-69
2022/08/26 10:47:11;;;;;;;6.60;3.80;;;;;;;23.04;100.00;101626.28;5025577;28;20514;-69
2022/08/26 10:49:38;;;;;;;11.77;4.87;;;;;;;23.29;100.00;101609.22;5026017;28;20782;-69
2022/08/26 10:52:14;;;;;;;7.30;3.93;;;;;;;23.19;100.00;101601.75;5024586;28;20427;-69
2022/08/26 10:54:53;;;;;;;7.17;3.33;;;;;;;23.21;100.00;101579.59;5022513;28;20489;-69
2022/08/26 10:57:26;;;;;;;6.37;3.33;;;;;;;23.64;100.00;101633.19;5024592;28;20435;-68
2022/08/26 11:03:24;;;;;;;5.63;3.80;;;;;;;23.28;100.00;101631.34;5020355;28;20451;-70
2022/08/26 11:06:28;;;;;;;10.13;3.70;;;;;;;23.25;100.00;101643.66;5001231;28;20966;-68
2022/08/26 11:09:00;;;;;;;7.43;3.90;;;;;;;23.07;100.00;101646.81;4970282;28;20438;-69
2022/08/26 11:11:40;;;;;;;6.13;3.00;;;;;;;22.98;100.00;101636.38;4971017;28;20436;-69
2022/08/26 11:14:12;;;;;;;5.80;3.70;;;;;;;22.82;100.00;101633.75;5001855;28;23149;-69
2022/08/26 11:16:51;;;;;;;5.60;3.13;;;;;;;22.83;100.00;101646.34;5023831;28;20439;-69
2022/08/26 11:19:36;;;;;;;6.93;3.10;;;;;;;22.87;100.00;101642.00;5021663;28;20528;-69
2022/08/26 11:22:08;;;;;;;6.17;2.77;;;;;;;22.71;100.00;101644.63;5023003;28;20422;-69
2022/08/26 11:24:56;;;;;;;6.27;3.40;;;;;;;22.71;100.00;101647.34;5021204;28;20462;-69
2022/08/26 11:27:24;;;;;;;7.00;3.07;;;;;;;22.53;100.00;101658.66;5024248;28;20443;-69